sensor_id;sensor_type;location;lat;lon;timestamp;temperature;humidity
64549;DHT22;49838;51.798;10.954;2023-04-01T00:02:13;16.60;43.10
64549;DHT22;49838;51.798;10.954;2023-04-01T00:04:42;16.60;43.10
64549;DHT22;49838;51.798;10.954;2023-04-01T00:07:09;16.60;43.10
64549;DHT22;49838;51.798;10.954;2023-04-01T00:09:37;16.70;43.10
64549;DHT22;49838;51.798;10.954;2023-04-01T00:12:04;16.70;43.00
64549;DHT22;49838;51.798;10.954;2023-04-01T00:14:32;16.70;42.90
64549;DHT22;49838;51.798;10.954;2023-04-01T00:16:59;16.70;42.90
64549;DHT22;49838;51.798;10.954;2023-04-01T00:19:26;16.70;42.90
64549;DHT22;49838;51.798;10.954;2023-04-01T00:21:56;16.80;42.90
64549;DHT22;49838;51.798;10.954;2023-04-01T00:24:24;16.80;42.90
64549;DHT22;49838;51.798;10.954;2023-04-01T00:26:51;16.80;42.80
64549;DHT22;49838;51.798;10.954;2023-04-01T00:29:18;16.80;42.80
64549;DHT22;49838;51.798;10.954;2023-04-01T00:31:45;16.80;43.50
64549;DHT22;49838;51.798;10.954;2023-04-01T00:34:14;16.80;42.90
64549;DHT22;49838;51.798;10.954;2023-04-01T00:36:41;16.80;42.90
64549;DHT22;49838;51.798;10.954;2023-04-01T00:39:09;16.80;42.90
64549;DHT22;49838;51.798;10.954;2023-04-01T00:41:36;16.70;42.90
64549;DHT22;49838;51.798;10.954;2023-04-01T00:44:18;16.70;42.90
64549;DHT22;49838;51.798;10.954;2023-04-01T00:46:47;16.80;42.90
64549;DHT22;49838;51.798;10.954;2023-04-01T00:49:15;16.70;42.80
64549;DHT22;49838;51.798;10.954;2023-04-01T00:51:45;16.70;42.80
64549;DHT22;49838;51.798;10.954;2023-04-01T00:54:17;16.70;42.90
64549;DHT22;49838;51.798;10.954;2023-04-01T00:56:48;16.70;42.90
64549;DHT22;49838;51.798;10.954;2023-04-01T00:59:22;16.70;42.90
64549;DHT22;49838;51.798;10.954;2023-04-01T01:01:52;16.70;42.90
64549;DHT22;49838;51.798;10.954;2023-04-01T01:04:23;16.70;42.90
64549;DHT22;49838;51.798;10.954;2023-04-01T01:06:54;16.60;43.00
64549;DHT22;49838;51.798;10.954;2023-04-01T01:09:32;16.60;43.00
64549;DHT22;49838;51.798;10.954;2023-04-01T01:12:07;16.70;43.10
64549;DHT22;49838;51.798;10.954;2023-04-01T01:14:51;16.70;42.90
64549;DHT22;49838;51.798;10.954;2023-04-01T01:17:26;16.70;42.90
64549;DHT22;49838;51.798;10.954;2023-04-01T01:20:14;16.70;42.90
64549;DHT22;49838;51.798;10.954;2023-04-01T01:22:52;16.70;42.90
64549;DHT22;49838;51.798;10.954;2023-04-01T01:25:37;16.70;42.90
64549;DHT22;49838;51.798;10.954;2023-04-01T01:28:15;16.70;42.90
64549;DHT22;49838;51.798;10.954;2023-04-01T01:31:00;16.70;42.90
64549;DHT22;49838;51.798;10.954;2023-04-01T01:33:39;16.80;43.00
64549;DHT22;49838;51.798;10.954;2023-04-01T01:36:28;16.70;42.80
64549;DHT22;49838;51.798;10.954;2023-04-01T01:39:00;16.70;42.80
64549;DHT22;49838;51.798;10.954;2023-04-01T01:41:28;16.70;42.80
64549;DHT22;49838;51.798;10.954;2023-04-01T01:43:58;16.80;42.80
64549;DHT22;49838;51.798;10.954;2023-04-01T01:46:28;16.80;42.80
64549;DHT22;49838;51.798;10.954;2023-04-01T01:48:57;16.80;42.80
64549;DHT22;49838;51.798;10.954;2023-04-01T01:51:28;16.80;42.90
64549;DHT22;49838;51.798;10.954;2023-04-01T01:53:55;16.80;42.70
64549;DHT22;49838;51.798;10.954;2023-04-01T01:56:23;16.80;42.70
64549;DHT22;49838;51.798;10.954;2023-04-01T01:58:55;16.80;42.80
64549;DHT22;49838;51.798;10.954;2023-04-01T02:01:26;16.80;42.80
64549;DHT22;49838;51.798;10.954;2023-04-01T02:03:56;16.80;42.80
64549;DHT22;49838;51.798;10.954;2023-04-01T02:06:25;16.80;42.70
64549;DHT22;49838;51.798;10.954;2023-04-01T02:08:57;16.80;42.60
64549;DHT22;49838;51.798;10.954;2023-04-01T02:11:29;16.80;42.60
64549;DHT22;49838;51.798;10.954;2023-04-01T02:14:01;16.80;42.70
64549;DHT22;49838;51.798;10.954;2023-04-01T02:16:32;16.80;42.60
64549;DHT22;49838;51.798;10.954;2023-04-01T02:19:03;16.80;42.60
64549;DHT22;49838;51.798;10.954;2023-04-01T02:21:33;16.70;42.60
64549;DHT22;49838;51.798;10.954;2023-04-01T02:24:04;16.70;43.20
64549;DHT22;49838;51.798;10.954;2023-04-01T02:26:35;16.70;42.60
64549;DHT22;49838;51.798;10.954;2023-04-01T02:29:02;16.70;42.60
64549;DHT22;49838;51.798;10.954;2023-04-01T02:31:32;16.70;42.60
64549;DHT22;49838;51.798;10.954;2023-04-01T02:34:00;16.70;42.60
64549;DHT22;49838;51.798;10.954;2023-04-01T02:36:29;16.70;42.70
64549;DHT22;49838;51.798;10.954;2023-04-01T02:38:56;16.70;42.60
64549;DHT22;49838;51.798;10.954;2023-04-01T02:41:29;16.70;42.60
64549;DHT22;49838;51.798;10.954;2023-04-01T02:43:57;16.70;42.60
64549;DHT22;49838;51.798;10.954;2023-04-01T02:46:25;16.70;42.60
64549;DHT22;49838;51.798;10.954;2023-04-01T02:48:52;16.80;42.70
64549;DHT22;49838;51.798;10.954;2023-04-01T02:51:20;16.70;42.60
64549;DHT22;49838;51.798;10.954;2023-04-01T02:53:47;16.80;42.60
64549;DHT22;49838;51.798;10.954;2023-04-01T02:56:14;16.70;42.50
64549;DHT22;49838;51.798;10.954;2023-04-01T02:58:42;16.80;42.60
64549;DHT22;49838;51.798;10.954;2023-04-01T03:01:10;16.70;42.50
64549;DHT22;49838;51.798;10.954;2023-04-01T03:03:37;16.60;42.50
64549;DHT22;49838;51.798;10.954;2023-04-01T03:06:05;16.60;42.60
64549;DHT22;49838;51.798;10.954;2023-04-01T03:08:32;16.60;42.50
64549;DHT22;49838;51.798;10.954;2023-04-01T03:11:00;16.60;42.60
64549;DHT22;49838;51.798;10.954;2023-04-01T03:13:27;16.60;42.60
64549;DHT22;49838;51.798;10.954;2023-04-01T03:15:56;16.60;42.60
64549;DHT22;49838;51.798;10.954;2023-04-01T03:18:23;16.60;42.60
64549;DHT22;49838;51.798;10.954;2023-04-01T03:20:50;16.60;42.60
64549;DHT22;49838;51.798;10.954;2023-04-01T03:23:18;16.60;42.60
64549;DHT22;49838;51.798;10.954;2023-04-01T03:25:47;16.60;42.50
64549;DHT22;49838;51.798;10.954;2023-04-01T03:28:14;16.60;42.50
64549;DHT22;49838;51.798;10.954;2023-04-01T03:30:41;16.70;42.50
64549;DHT22;49838;51.798;10.954;2023-04-01T03:33:10;16.70;42.50
64549;DHT22;49838;51.798;10.954;2023-04-01T03:35:37;16.60;42.50
64549;DHT22;49838;51.798;10.954;2023-04-01T03:38:04;16.70;42.50
64549;DHT22;49838;51.798;10.954;2023-04-01T03:40:31;16.70;42.50
64549;DHT22;49838;51.798;10.954;2023-04-01T03:43:02;16.70;42.40
64549;DHT22;49838;51.798;10.954;2023-04-01T03:45:33;16.70;42.50
64549;DHT22;49838;51.798;10.954;2023-04-01T03:48:01;16.70;42.60
64549;DHT22;49838;51.798;10.954;2023-04-01T03:50:29;16.60;42.60
64549;DHT22;49838;51.798;10.954;2023-04-01T03:52:57;16.60;42.50
64549;DHT22;49838;51.798;10.954;2023-04-01T03:55:24;16.60;42.50
64549;DHT22;49838;51.798;10.954;2023-04-01T03:57:51;16.60;42.50
64549;DHT22;49838;51.798;10.954;2023-04-01T04:00:19;16.60;42.60
64549;DHT22;49838;51.798;10.954;2023-04-01T04:02:46;16.60;42.60
64549;DHT22;49838;51.798;10.954;2023-04-01T04:05:13;16.60;42.60
64549;DHT22;49838;51.798;10.954;2023-04-01T04:07:42;16.60;42.50
64549;DHT22;49838;51.798;10.954;2023-04-01T04:10:09;16.60;42.50
64549;DHT22;49838;51.798;10.954;2023-04-01T04:12:37;16.60;42.50
64549;DHT22;49838;51.798;10.954;2023-04-01T04:15:04;16.50;42.50
64549;DHT22;49838;51.798;10.954;2023-04-01T04:17:32;16.50;42.50
64549;DHT22;49838;51.798;10.954;2023-04-01T04:19:59;16.50;42.50
64549;DHT22;49838;51.798;10.954;2023-04-01T04:22:27;16.50;42.50
64549;DHT22;49838;51.798;10.954;2023-04-01T04:24:55;16.60;42.80
64549;DHT22;49838;51.798;10.954;2023-04-01T04:27:23;16.50;42.50
64549;DHT22;49838;51.798;10.954;2023-04-01T04:29:50;16.50;42.50
64549;DHT22;49838;51.798;10.954;2023-04-01T04:32:17;16.50;42.40
64549;DHT22;49838;51.798;10.954;2023-04-01T04:34:44;16.50;42.50
64549;DHT22;49838;51.798;10.954;2023-04-01T04:37:11;16.50;42.40
64549;DHT22;49838;51.798;10.954;2023-04-01T04:39:38;16.50;42.50
64549;DHT22;49838;51.798;10.954;2023-04-01T04:42:07;16.50;42.50
64549;DHT22;49838;51.798;10.954;2023-04-01T04:44:34;16.50;42.50
64549;DHT22;49838;51.798;10.954;2023-04-01T04:47:01;16.50;42.50
64549;DHT22;49838;51.798;10.954;2023-04-01T04:49:29;16.50;42.70
64549;DHT22;49838;51.798;10.954;2023-04-01T04:51:56;16.50;42.60
64549;DHT22;49838;51.798;10.954;2023-04-01T04:54:23;16.50;42.60
64549;DHT22;49838;51.798;10.954;2023-04-01T04:56:50;16.50;42.50
64549;DHT22;49838;51.798;10.954;2023-04-01T04:59:19;16.60;42.50
64549;DHT22;49838;51.798;10.954;2023-04-01T05:01:47;16.60;42.50
64549;DHT22;49838;51.798;10.954;2023-04-01T05:04:14;16.60;42.90
64549;DHT22;49838;51.798;10.954;2023-04-01T05:06:42;16.60;42.50
64549;DHT22;49838;51.798;10.954;2023-04-01T05:09:09;16.60;42.40
64549;DHT22;49838;51.798;10.954;2023-04-01T05:11:36;16.60;42.40
64549;DHT22;49838;51.798;10.954;2023-04-01T05:14:03;16.60;42.30
64549;DHT22;49838;51.798;10.954;2023-04-01T05:16:32;16.70;42.40
64549;DHT22;49838;51.798;10.954;2023-04-01T05:18:59;16.70;42.40
64549;DHT22;49838;51.798;10.954;2023-04-01T05:21:26;16.70;42.30
64549;DHT22;49838;51.798;10.954;2023-04-01T05:23:53;16.70;42.30
64549;DHT22;49838;51.798;10.954;2023-04-01T05:26:21;16.80;42.40
64549;DHT22;49838;51.798;10.954;2023-04-01T05:28:48;16.80;42.40
64549;DHT22;49838;51.798;10.954;2023-04-01T05:31:15;16.80;42.40
64549;DHT22;49838;51.798;10.954;2023-04-01T05:33:43;16.80;42.40
64549;DHT22;49838;51.798;10.954;2023-04-01T05:36:11;16.80;42.40
64549;DHT22;49838;51.798;10.954;2023-04-01T05:38:42;16.70;42.40
64549;DHT22;49838;51.798;10.954;2023-04-01T05:41:11;16.70;43.00
64549;DHT22;49838;51.798;10.954;2023-04-01T05:43:39;16.80;42.50
64549;DHT22;49838;51.798;10.954;2023-04-01T05:46:06;16.80;42.40
64549;DHT22;49838;51.798;10.954;2023-04-01T05:48:34;16.80;42.40
64549;DHT22;49838;51.798;10.954;2023-04-01T05:51:03;16.80;42.30
64549;DHT22;49838;51.798;10.954;2023-04-01T05:53:31;16.90;42.50
64549;DHT22;49838;51.798;10.954;2023-04-01T05:56:02;16.90;42.50
64549;DHT22;49838;51.798;10.954;2023-04-01T05:58:30;16.90;42.40
64549;DHT22;49838;51.798;10.954;2023-04-01T06:01:00;16.90;42.40
64549;DHT22;49838;51.798;10.954;2023-04-01T06:03:29;16.90;42.50
64549;DHT22;49838;51.798;10.954;2023-04-01T06:05:56;16.90;42.50
64549;DHT22;49838;51.798;10.954;2023-04-01T06:08:24;17.00;42.50
64549;DHT22;49838;51.798;10.954;2023-04-01T06:10:55;17.00;42.50
64549;DHT22;49838;51.798;10.954;2023-04-01T06:13:34;17.00;42.50
64549;DHT22;49838;51.798;10.954;2023-04-01T06:16:11;17.00;42.50
64549;DHT22;49838;51.798;10.954;2023-04-01T06:18:52;17.00;42.50
64549;DHT22;49838;51.798;10.954;2023-04-01T06:21:44;17.10;42.50
64549;DHT22;49838;51.798;10.954;2023-04-01T06:24:27;17.10;42.50
64549;DHT22;49838;51.798;10.954;2023-04-01T06:27:07;17.20;42.60
64549;DHT22;49838;51.798;10.954;2023-04-01T06:29:51;17.20;42.60
64549;DHT22;49838;51.798;10.954;2023-04-01T06:32:37;17.20;42.60
64549;DHT22;49838;51.798;10.954;2023-04-01T06:35:35;17.40;42.60
64549;DHT22;49838;51.798;10.954;2023-04-01T06:38:27;17.50;42.60
64549;DHT22;49838;51.798;10.954;2023-04-01T06:44:16;17.90;42.70
64549;DHT22;49838;51.798;10.954;2023-04-01T06:46:52;18.10;42.70
64549;DHT22;49838;51.798;10.954;2023-04-01T06:49:29;18.20;42.70
64549;DHT22;49838;51.798;10.954;2023-04-01T06:52:09;18.30;42.70
64549;DHT22;49838;51.798;10.954;2023-04-01T06:54:47;18.40;42.60
64549;DHT22;49838;51.798;10.954;2023-04-01T06:57:21;18.50;42.70
64549;DHT22;49838;51.798;10.954;2023-04-01T06:59:56;18.60;42.80
64549;DHT22;49838;51.798;10.954;2023-04-01T07:02:29;18.80;42.80
64549;DHT22;49838;51.798;10.954;2023-04-01T07:05:03;18.90;42.60
64549;DHT22;49838;51.798;10.954;2023-04-01T07:07:33;19.10;42.80
64549;DHT22;49838;51.798;10.954;2023-04-01T07:10:05;19.20;42.70
64549;DHT22;49838;51.798;10.954;2023-04-01T07:12:42;19.30;42.70
64549;DHT22;49838;51.798;10.954;2023-04-01T07:15:15;19.50;42.90
64549;DHT22;49838;51.798;10.954;2023-04-01T07:17:47;19.70;42.90
64549;DHT22;49838;51.798;10.954;2023-04-01T07:20:20;19.90;43.00
64549;DHT22;49838;51.798;10.954;2023-04-01T07:22:52;20.20;43.00
64549;DHT22;49838;51.798;10.954;2023-04-01T07:25:24;20.30;42.80
64549;DHT22;49838;51.798;10.954;2023-04-01T07:27:56;20.60;43.00
64549;DHT22;49838;51.798;10.954;2023-04-01T07:30:28;21.10;43.30
64549;DHT22;49838;51.798;10.954;2023-04-01T07:33:07;21.30;43.20
64549;DHT22;49838;51.798;10.954;2023-04-01T07:35:41;21.40;43.10
64549;DHT22;49838;51.798;10.954;2023-04-01T07:38:18;21.50;43.00
64549;DHT22;49838;51.798;10.954;2023-04-01T07:40:52;21.70;43.10
64549;DHT22;49838;51.798;10.954;2023-04-01T07:46:19;21.80;42.80
64549;DHT22;49838;51.798;10.954;2023-04-01T07:48:57;21.70;42.80
64549;DHT22;49838;51.798;10.954;2023-04-01T07:51:31;21.60;42.40
64549;DHT22;49838;51.798;10.954;2023-04-01T07:54:06;21.60;42.30
64549;DHT22;49838;51.798;10.954;2023-04-01T07:56:40;21.50;42.50
64549;DHT22;49838;51.798;10.954;2023-04-01T07:59:15;21.50;42.70
64549;DHT22;49838;51.798;10.954;2023-04-01T08:01:51;21.50;42.50
64549;DHT22;49838;51.798;10.954;2023-04-01T08:04:34;21.50;42.50
64549;DHT22;49838;51.798;10.954;2023-04-01T08:07:13;21.60;42.70
64549;DHT22;49838;51.798;10.954;2023-04-01T08:09:44;21.60;42.60
64549;DHT22;49838;51.798;10.954;2023-04-01T08:12:23;21.60;42.30
64549;DHT22;49838;51.798;10.954;2023-04-01T08:15:04;21.50;42.10
64549;DHT22;49838;51.798;10.954;2023-04-01T08:17:44;21.50;42.40
64549;DHT22;49838;51.798;10.954;2023-04-01T08:20:24;21.60;42.50
64549;DHT22;49838;51.798;10.954;2023-04-01T08:22:58;21.70;42.60
64549;DHT22;49838;51.798;10.954;2023-04-01T08:25:34;21.80;42.30
64549;DHT22;49838;51.798;10.954;2023-04-01T08:28:09;21.90;42.40
64549;DHT22;49838;51.798;10.954;2023-04-01T08:30:45;22.00;42.20
64549;DHT22;49838;51.798;10.954;2023-04-01T08:33:17;22.00;42.20
64549;DHT22;49838;51.798;10.954;2023-04-01T08:35:50;21.90;41.90
64549;DHT22;49838;51.798;10.954;2023-04-01T08:38:22;22.00;41.60
64549;DHT22;49838;51.798;10.954;2023-04-01T08:40:57;22.00;41.70
64549;DHT22;49838;51.798;10.954;2023-04-01T08:43:38;22.00;41.80
64549;DHT22;49838;51.798;10.954;2023-04-01T08:46:21;22.10;41.40
64549;DHT22;49838;51.798;10.954;2023-04-01T08:49:04;22.10;41.20
64549;DHT22;49838;51.798;10.954;2023-04-01T08:51:48;22.20;41.60
64549;DHT22;49838;51.798;10.954;2023-04-01T08:54:33;22.30;41.60
64549;DHT22;49838;51.798;10.954;2023-04-01T08:57:11;22.40;41.70
64549;DHT22;49838;51.798;10.954;2023-04-01T08:59:53;22.50;41.80
64549;DHT22;49838;51.798;10.954;2023-04-01T09:08:42;23.20;41.70
64549;DHT22;49838;51.798;10.954;2023-04-01T09:11:26;23.60;42.20
64549;DHT22;49838;51.798;10.954;2023-04-01T09:20:04;23.80;41.20
64549;DHT22;49838;51.798;10.954;2023-04-01T09:22:50;23.60;41.10
64549;DHT22;49838;51.798;10.954;2023-04-01T09:25:50;23.40;40.90
64549;DHT22;49838;51.798;10.954;2023-04-01T09:28:25;23.20;40.80
64549;DHT22;49838;51.798;10.954;2023-04-01T09:31:04;23.10;40.60
64549;DHT22;49838;51.798;10.954;2023-04-01T09:33:46;23.00;40.60
64549;DHT22;49838;51.798;10.954;2023-04-01T09:36:35;23.00;40.60
64549;DHT22;49838;51.798;10.954;2023-04-01T09:39:16;22.90;40.50
64549;DHT22;49838;51.798;10.954;2023-04-01T09:41:57;22.80;40.30
64549;DHT22;49838;51.798;10.954;2023-04-01T09:44:44;22.80;40.50
64549;DHT22;49838;51.798;10.954;2023-04-01T09:47:20;22.70;40.20
64549;DHT22;49838;51.798;10.954;2023-04-01T09:50:20;22.60;40.30
64549;DHT22;49838;51.798;10.954;2023-04-01T09:53:01;22.60;40.50
64549;DHT22;49838;51.798;10.954;2023-04-01T09:59:07;22.70;40.60
64549;DHT22;49838;51.798;10.954;2023-04-01T10:02:14;22.90;40.80
64549;DHT22;49838;51.798;10.954;2023-04-01T10:05:30;23.00;40.80
64549;DHT22;49838;51.798;10.954;2023-04-01T10:14:23;23.50;40.50
64549;DHT22;49838;51.798;10.954;2023-04-01T10:17:18;23.50;40.40
64549;DHT22;49838;51.798;10.954;2023-04-01T10:20:01;23.40;40.50
64549;DHT22;49838;51.798;10.954;2023-04-01T10:22:46;23.50;40.50
64549;DHT22;49838;51.798;10.954;2023-04-01T10:28:37;23.40;40.30
64549;DHT22;49838;51.798;10.954;2023-04-01T10:31:42;23.40;40.20
64549;DHT22;49838;51.798;10.954;2023-04-01T10:34:47;23.60;40.90
64549;DHT22;49838;51.798;10.954;2023-04-01T10:37:36;24.00;41.00
64549;DHT22;49838;51.798;10.954;2023-04-01T10:40:29;24.10;40.70
64549;DHT22;49838;51.798;10.954;2023-04-01T10:49:32;24.00;40.40
64549;DHT22;49838;51.798;10.954;2023-04-01T10:52:22;23.90;40.00
64549;DHT22;49838;51.798;10.954;2023-04-01T10:55:17;23.80;40.10
64549;DHT22;49838;51.798;10.954;2023-04-01T10:58:16;23.70;40.50
64549;DHT22;49838;51.798;10.954;2023-04-01T11:01:08;23.70;40.70
64549;DHT22;49838;51.798;10.954;2023-04-01T11:04:06;23.60;40.50
64549;DHT22;49838;51.798;10.954;2023-04-01T11:17:03;23.20;40.20
64549;DHT22;49838;51.798;10.954;2023-04-01T11:19:56;23.10;40.20
64549;DHT22;49838;51.798;10.954;2023-04-01T11:28:34;23.10;40.50
64549;DHT22;49838;51.798;10.954;2023-04-01T11:31:17;23.10;40.60
64549;DHT22;49838;51.798;10.954;2023-04-01T11:34:02;23.10;40.60
64549;DHT22;49838;51.798;10.954;2023-04-01T11:36:44;23.20;40.50
64549;DHT22;49838;51.798;10.954;2023-04-01T11:39:28;23.20;40.50
64549;DHT22;49838;51.798;10.954;2023-04-01T11:42:10;23.30;40.70
64549;DHT22;49838;51.798;10.954;2023-04-01T11:44:46;23.30;40.50
64549;DHT22;49838;51.798;10.954;2023-04-01T11:47:27;23.30;40.60
64549;DHT22;49838;51.798;10.954;2023-04-01T11:50:14;23.30;40.70
64549;DHT22;49838;51.798;10.954;2023-04-01T11:55:44;23.00;40.10
64549;DHT22;49838;51.798;10.954;2023-04-01T11:58:28;22.90;40.40
64549;DHT22;49838;51.798;10.954;2023-04-01T12:04:05;22.70;40.40
64549;DHT22;49838;51.798;10.954;2023-04-01T12:06:47;22.60;40.40
64549;DHT22;49838;51.798;10.954;2023-04-01T12:09:21;22.50;40.30
64549;DHT22;49838;51.798;10.954;2023-04-01T12:12:03;22.40;40.40
64549;DHT22;49838;51.798;10.954;2023-04-01T12:14:44;22.50;40.50
64549;DHT22;49838;51.798;10.954;2023-04-01T12:17:26;22.40;40.40
64549;DHT22;49838;51.798;10.954;2023-04-01T12:19:59;22.40;40.40
64549;DHT22;49838;51.798;10.954;2023-04-01T12:22:46;22.40;40.50
64549;DHT22;49838;51.798;10.954;2023-04-01T12:25:27;22.40;40.50
64549;DHT22;49838;51.798;10.954;2023-04-01T12:28:15;22.40;40.50
64549;DHT22;49838;51.798;10.954;2023-04-01T12:30:59;22.50;40.60
64549;DHT22;49838;51.798;10.954;2023-04-01T12:33:37;22.50;40.50
64549;DHT22;49838;51.798;10.954;2023-04-01T12:36:18;22.40;40.30
64549;DHT22;49838;51.798;10.954;2023-04-01T12:39:03;22.20;40.20
64549;DHT22;49838;51.798;10.954;2023-04-01T12:41:46;22.20;40.50
64549;DHT22;49838;51.798;10.954;2023-04-01T12:44:26;22.10;40.60
64549;DHT22;49838;51.798;10.954;2023-04-01T12:47:09;22.00;40.60
64549;DHT22;49838;51.798;10.954;2023-04-01T12:49:55;22.00;40.70
64549;DHT22;49838;51.798;10.954;2023-04-01T12:52:30;22.00;40.70
64549;DHT22;49838;51.798;10.954;2023-04-01T12:58:18;22.20;40.80
64549;DHT22;49838;51.798;10.954;2023-04-01T13:07:16;22.40;40.70
64549;DHT22;49838;51.798;10.954;2023-04-01T13:09:56;22.50;40.60
64549;DHT22;49838;51.798;10.954;2023-04-01T13:12:39;22.50;40.50
64549;DHT22;49838;51.798;10.954;2023-04-01T13:15:32;22.50;40.50
64549;DHT22;49838;51.798;10.954;2023-04-01T13:18:07;22.60;40.50
64549;DHT22;49838;51.798;10.954;2023-04-01T13:20:49;22.50;40.50
64549;DHT22;49838;51.798;10.954;2023-04-01T13:23:32;22.60;40.40
64549;DHT22;49838;51.798;10.954;2023-04-01T13:26:09;22.60;40.40
64549;DHT22;49838;51.798;10.954;2023-04-01T13:28:47;22.50;40.40
64549;DHT22;49838;51.798;10.954;2023-04-01T13:31:29;22.50;40.30
64549;DHT22;49838;51.798;10.954;2023-04-01T13:34:09;22.30;40.30
64549;DHT22;49838;51.798;10.954;2023-04-01T13:36:53;22.10;40.40
64549;DHT22;49838;51.798;10.954;2023-04-01T13:39:33;22.00;40.50
64549;DHT22;49838;51.798;10.954;2023-04-01T13:42:21;21.80;40.50
64549;DHT22;49838;51.798;10.954;2023-04-01T13:44:55;21.80;40.70
64549;DHT22;49838;51.798;10.954;2023-04-01T13:47:30;21.70;40.70
64549;DHT22;49838;51.798;10.954;2023-04-01T13:50:17;21.70;40.80
64549;DHT22;49838;51.798;10.954;2023-04-01T13:53:11;21.70;40.80
64549;DHT22;49838;51.798;10.954;2023-04-01T13:55:54;21.70;40.90
64549;DHT22;49838;51.798;10.954;2023-04-01T14:01:28;21.80;40.90
64549;DHT22;49838;51.798;10.954;2023-04-01T14:04:08;21.70;40.90
64549;DHT22;49838;51.798;10.954;2023-04-01T14:06:49;21.80;40.80
64549;DHT22;49838;51.798;10.954;2023-04-01T14:09:30;21.70;40.80
64549;DHT22;49838;51.798;10.954;2023-04-01T14:12:19;21.70;40.90
64549;DHT22;49838;51.798;10.954;2023-04-01T14:17:53;21.60;40.90
64549;DHT22;49838;51.798;10.954;2023-04-01T14:20:39;21.50;41.00
64549;DHT22;49838;51.798;10.954;2023-04-01T14:23:18;21.50;41.00
64549;DHT22;49838;51.798;10.954;2023-04-01T14:26:03;21.30;41.10
64549;DHT22;49838;51.798;10.954;2023-04-01T14:28:40;21.20;41.10
64549;DHT22;49838;51.798;10.954;2023-04-01T14:31:18;21.00;41.10
64549;DHT22;49838;51.798;10.954;2023-04-01T14:34:00;20.70;41.30
64549;DHT22;49838;51.798;10.954;2023-04-01T14:36:49;20.50;41.40
64549;DHT22;49838;51.798;10.954;2023-04-01T14:39:33;20.30;41.50
64549;DHT22;49838;51.798;10.954;2023-04-01T14:42:35;20.20;41.60
64549;DHT22;49838;51.798;10.954;2023-04-01T14:45:20;20.00;41.70
64549;DHT22;49838;51.798;10.954;2023-04-01T14:48:03;19.90;42.00
64549;DHT22;49838;51.798;10.954;2023-04-01T14:50:43;19.70;42.10
64549;DHT22;49838;51.798;10.954;2023-04-01T14:53:13;19.70;42.40
64549;DHT22;49838;51.798;10.954;2023-04-01T14:55:53;19.50;42.20
64549;DHT22;49838;51.798;10.954;2023-04-01T14:58:23;19.40;42.50
64549;DHT22;49838;51.798;10.954;2023-04-01T15:00:55;19.30;42.50
64549;DHT22;49838;51.798;10.954;2023-04-01T15:03:34;19.30;42.40
64549;DHT22;49838;51.798;10.954;2023-04-01T15:06:20;19.30;42.50
64549;DHT22;49838;51.798;10.954;2023-04-01T15:09:03;19.30;42.50
64549;DHT22;49838;51.798;10.954;2023-04-01T15:11:42;19.30;42.80
64549;DHT22;49838;51.798;10.954;2023-04-01T15:14:27;19.20;43.10
64549;DHT22;49838;51.798;10.954;2023-04-01T15:17:14;19.20;44.10
64549;DHT22;49838;51.798;10.954;2023-04-01T15:19:59;19.10;44.10
64549;DHT22;49838;51.798;10.954;2023-04-01T15:22:48;18.90;44.30
64549;DHT22;49838;51.798;10.954;2023-04-01T15:25:35;18.80;44.40
64549;DHT22;49838;51.798;10.954;2023-04-01T15:28:15;18.80;44.40
64549;DHT22;49838;51.798;10.954;2023-04-01T15:30:53;18.70;44.50
64549;DHT22;49838;51.798;10.954;2023-04-01T15:33:30;18.60;44.60
64549;DHT22;49838;51.798;10.954;2023-04-01T15:36:19;18.40;44.40
64549;DHT22;49838;51.798;10.954;2023-04-01T15:39:02;18.30;44.50
64549;DHT22;49838;51.798;10.954;2023-04-01T15:41:43;18.10;44.80
64549;DHT22;49838;51.798;10.954;2023-04-01T15:44:35;17.90;44.90
64549;DHT22;49838;51.798;10.954;2023-04-01T15:47:24;17.80;45.80
64549;DHT22;49838;51.798;10.954;2023-04-01T15:50:05;17.70;46.40
64549;DHT22;49838;51.798;10.954;2023-04-01T15:52:54;17.50;45.90
64549;DHT22;49838;51.798;10.954;2023-04-01T15:55:35;17.40;45.50
64549;DHT22;49838;51.798;10.954;2023-04-01T15:58:28;17.30;45.40
64549;DHT22;49838;51.798;10.954;2023-04-01T16:01:08;17.20;46.00
64549;DHT22;49838;51.798;10.954;2023-04-01T16:03:46;16.80;45.70
64549;DHT22;49838;51.798;10.954;2023-04-01T16:06:24;16.90;46.20
64549;DHT22;49838;51.798;10.954;2023-04-01T16:09:20;16.80;46.10
64549;DHT22;49838;51.798;10.954;2023-04-01T16:11:58;16.80;46.60
64549;DHT22;49838;51.798;10.954;2023-04-01T16:14:33;16.80;47.10
64549;DHT22;49838;51.798;10.954;2023-04-01T16:17:12;16.70;47.50
64549;DHT22;49838;51.798;10.954;2023-04-01T16:19:55;16.60;47.30
64549;DHT22;49838;51.798;10.954;2023-04-01T16:22:27;16.60;47.40
64549;DHT22;49838;51.798;10.954;2023-04-01T16:25:07;16.50;47.40
64549;DHT22;49838;51.798;10.954;2023-04-01T16:27:49;16.60;47.60
64549;DHT22;49838;51.798;10.954;2023-04-01T16:30:26;16.50;47.60
64549;DHT22;49838;51.798;10.954;2023-04-01T16:33:02;16.50;47.60
64549;DHT22;49838;51.798;10.954;2023-04-01T16:35:42;16.50;47.60
64549;DHT22;49838;51.798;10.954;2023-04-01T16:38:15;16.50;47.60
64549;DHT22;49838;51.798;10.954;2023-04-01T16:40:52;16.50;47.70
64549;DHT22;49838;51.798;10.954;2023-04-01T16:43:35;16.50;47.70
64549;DHT22;49838;51.798;10.954;2023-04-01T16:46:13;16.50;48.10
64549;DHT22;49838;51.798;10.954;2023-04-01T16:48:52;16.50;48.30
64549;DHT22;49838;51.798;10.954;2023-04-01T16:51:26;16.50;48.30
64549;DHT22;49838;51.798;10.954;2023-04-01T16:54:04;16.50;48.80
64549;DHT22;49838;51.798;10.954;2023-04-01T16:56:38;16.40;48.60
64549;DHT22;49838;51.798;10.954;2023-04-01T16:59:13;16.50;49.20
64549;DHT22;49838;51.798;10.954;2023-04-01T17:01:48;16.40;49.00
64549;DHT22;49838;51.798;10.954;2023-04-01T17:04:21;16.50;49.60
64549;DHT22;49838;51.798;10.954;2023-04-01T17:06:59;16.40;49.90
64549;DHT22;49838;51.798;10.954;2023-04-01T17:09:36;16.40;50.70
64549;DHT22;49838;51.798;10.954;2023-04-01T17:12:19;16.20;50.50
64549;DHT22;49838;51.798;10.954;2023-04-01T17:14:59;16.20;50.80
64549;DHT22;49838;51.798;10.954;2023-04-01T17:17:34;16.00;51.70
64549;DHT22;49838;51.798;10.954;2023-04-01T17:20:13;15.90;51.20
64549;DHT22;49838;51.798;10.954;2023-04-01T17:22:52;15.70;51.60
64549;DHT22;49838;51.798;10.954;2023-04-01T17:25:31;15.60;52.10
64549;DHT22;49838;51.798;10.954;2023-04-01T17:28:05;15.40;51.40